sensor_id;sensor_type;location;lat;lon;timestamp;temperature;humidity
15636;DHT22;7917;50.818;6.972;2023-02-24T00:01:31;6.80;99.90
15636;DHT22;7917;50.818;6.972;2023-02-24T00:04:03;6.80;99.90
15636;DHT22;7917;50.818;6.972;2023-02-24T00:06:33;6.80;99.90
15636;DHT22;7917;50.818;6.972;2023-02-24T00:09:03;6.80;99.90
15636;DHT22;7917;50.818;6.972;2023-02-24T00:11:33;6.80;99.90
15636;DHT22;7917;50.818;6.972;2023-02-24T00:14:00;6.80;99.90
15636;DHT22;7917;50.818;6.972;2023-02-24T00:16:28;6.80;99.90
15636;DHT22;7917;50.818;6.972;2023-02-24T00:18:57;6.80;99.90
15636;DHT22;7917;50.818;6.972;2023-02-24T00:21:23;6.80;99.90
15636;DHT22;7917;50.818;6.972;2023-02-24T00:23:50;6.70;99.90
15636;DHT22;7917;50.818;6.972;2023-02-24T00:26:18;6.80;99.90
15636;DHT22;7917;50.818;6.972;2023-02-24T00:28:45;6.80;99.90
15636;DHT22;7917;50.818;6.972;2023-02-24T00:31:14;6.80;99.90
15636;DHT22;7917;50.818;6.972;2023-02-24T00:33:41;6.90;99.90
15636;DHT22;7917;50.818;6.972;2023-02-24T00:36:11;6.90;99.90
15636;DHT22;7917;50.818;6.972;2023-02-24T00:38:40;7.00;99.90
15636;DHT22;7917;50.818;6.972;2023-02-24T00:41:11;7.00;99.90
15636;DHT22;7917;50.818;6.972;2023-02-24T00:43:39;7.10;99.90
15636;DHT22;7917;50.818;6.972;2023-02-24T00:46:05;7.10;99.90
15636;DHT22;7917;50.818;6.972;2023-02-24T00:48:37;7.10;99.90
15636;DHT22;7917;50.818;6.972;2023-02-24T00:51:06;7.10;99.90
15636;DHT22;7917;50.818;6.972;2023-02-24T00:53:33;7.10;99.90
15636;DHT22;7917;50.818;6.972;2023-02-24T00:56:00;7.00;99.90
15636;DHT22;7917;50.818;6.972;2023-02-24T00:58:30;7.00;99.90
15636;DHT22;7917;50.818;6.972;2023-02-24T01:00:57;7.00;99.90
15636;DHT22;7917;50.818;6.972;2023-02-24T01:03:25;6.90;99.90
15636;DHT22;7917;50.818;6.972;2023-02-24T01:05:53;6.90;99.90
15636;DHT22;7917;50.818;6.972;2023-02-24T01:08:20;6.80;99.90
15636;DHT22;7917;50.818;6.972;2023-02-24T01:10:54;6.80;99.90
15636;DHT22;7917;50.818;6.972;2023-02-24T01:13:44;6.80;99.90
15636;DHT22;7917;50.818;6.972;2023-02-24T01:16:10;6.70;99.90
15636;DHT22;7917;50.818;6.972;2023-02-24T01:18:39;6.70;99.90
15636;DHT22;7917;50.818;6.972;2023-02-24T01:21:06;6.70;99.90
15636;DHT22;7917;50.818;6.972;2023-02-24T01:23:33;6.70;99.90
15636;DHT22;7917;50.818;6.972;2023-02-24T01:26:01;6.70;99.90
15636;DHT22;7917;50.818;6.972;2023-02-24T01:28:28;6.60;99.90
15636;DHT22;7917;50.818;6.972;2023-02-24T01:31:00;6.60;99.90
15636;DHT22;7917;50.818;6.972;2023-02-24T01:33:27;6.60;99.90
15636;DHT22;7917;50.818;6.972;2023-02-24T01:35:54;6.60;99.90
15636;DHT22;7917;50.818;6.972;2023-02-24T01:38:21;6.60;99.90
15636;DHT22;7917;50.818;6.972;2023-02-24T01:40:55;6.60;99.90
15636;DHT22;7917;50.818;6.972;2023-02-24T01:43:22;6.60;99.90
15636;DHT22;7917;50.818;6.972;2023-02-24T01:45:52;6.60;99.90
15636;DHT22;7917;50.818;6.972;2023-02-24T01:48:18;6.50;99.90
15636;DHT22;7917;50.818;6.972;2023-02-24T01:50:47;6.50;99.90
15636;DHT22;7917;50.818;6.972;2023-02-24T01:53:15;6.50;99.90
15636;DHT22;7917;50.818;6.972;2023-02-24T01:55:45;6.40;99.90
15636;DHT22;7917;50.818;6.972;2023-02-24T01:58:19;6.40;99.90
15636;DHT22;7917;50.818;6.972;2023-02-24T02:00:52;6.40;99.90
15636;DHT22;7917;50.818;6.972;2023-02-24T02:03:22;6.50;99.90
15636;DHT22;7917;50.818;6.972;2023-02-24T02:05:51;6.50;99.90
15636;DHT22;7917;50.818;6.972;2023-02-24T02:08:22;6.50;99.90
15636;DHT22;7917;50.818;6.972;2023-02-24T02:10:51;6.40;99.90
15636;DHT22;7917;50.818;6.972;2023-02-24T02:13:25;6.40;99.90
15636;DHT22;7917;50.818;6.972;2023-02-24T02:18:52;6.40;99.90
15636;DHT22;7917;50.818;6.972;2023-02-24T02:31:04;6.40;99.90
15636;DHT22;7917;50.818;6.972;2023-02-24T02:36:56;6.30;99.90
15636;DHT22;7917;50.818;6.972;2023-02-24T02:39:30;6.30;99.90
15636;DHT22;7917;50.818;6.972;2023-02-24T02:42:05;6.30;99.90
15636;DHT22;7917;50.818;6.972;2023-02-24T02:44:46;6.30;99.90
15636;DHT22;7917;50.818;6.972;2023-02-24T02:47:26;6.30;99.90
15636;DHT22;7917;50.818;6.972;2023-02-24T02:49:56;6.20;99.90
15636;DHT22;7917;50.818;6.972;2023-02-24T02:52:28;6.20;99.90
15636;DHT22;7917;50.818;6.972;2023-02-24T02:54:59;6.20;99.90
15636;DHT22;7917;50.818;6.972;2023-02-24T02:57:31;6.10;99.90
15636;DHT22;7917;50.818;6.972;2023-02-24T03:00:03;6.20;99.90
15636;DHT22;7917;50.818;6.972;2023-02-24T03:02:36;6.20;99.90
15636;DHT22;7917;50.818;6.972;2023-02-24T03:05:06;6.20;99.90
15636;DHT22;7917;50.818;6.972;2023-02-24T03:07:39;6.10;99.90
15636;DHT22;7917;50.818;6.972;2023-02-24T03:10:10;6.10;99.90
15636;DHT22;7917;50.818;6.972;2023-02-24T03:12:49;6.10;99.90
15636;DHT22;7917;50.818;6.972;2023-02-24T03:15:18;6.10;99.90
15636;DHT22;7917;50.818;6.972;2023-02-24T03:17:48;6.00;99.90
15636;DHT22;7917;50.818;6.972;2023-02-24T03:20:23;6.00;99.90
15636;DHT22;7917;50.818;6.972;2023-02-24T03:22:58;6.00;99.90
15636;DHT22;7917;50.818;6.972;2023-02-24T03:25:33;6.00;99.90
15636;DHT22;7917;50.818;6.972;2023-02-24T03:28:08;6.10;99.90
15636;DHT22;7917;50.818;6.972;2023-02-24T03:30:41;6.00;99.90
15636;DHT22;7917;50.818;6.972;2023-02-24T03:33:13;6.00;99.90
15636;DHT22;7917;50.818;6.972;2023-02-24T03:35:42;5.90;99.90
15636;DHT22;7917;50.818;6.972;2023-02-24T03:38:10;5.90;99.90
15636;DHT22;7917;50.818;6.972;2023-02-24T03:40:37;5.90;99.90
15636;DHT22;7917;50.818;6.972;2023-02-24T03:43:07;5.80;99.90
15636;DHT22;7917;50.818;6.972;2023-02-24T03:45:37;5.80;99.90
15636;DHT22;7917;50.818;6.972;2023-02-24T03:48:05;5.80;99.90
15636;DHT22;7917;50.818;6.972;2023-02-24T03:50:33;5.70;99.90
15636;DHT22;7917;50.818;6.972;2023-02-24T03:53:21;5.70;99.90
15636;DHT22;7917;50.818;6.972;2023-02-24T03:56:01;5.70;99.90
15636;DHT22;7917;50.818;6.972;2023-02-24T03:58:37;5.70;99.90
15636;DHT22;7917;50.818;6.972;2023-02-24T04:01:12;5.60;99.90
15636;DHT22;7917;50.818;6.972;2023-02-24T04:03:47;5.60;99.90
15636;DHT22;7917;50.818;6.972;2023-02-24T04:06:19;5.60;99.90
15636;DHT22;7917;50.818;6.972;2023-02-24T04:08:59;5.60;99.90
15636;DHT22;7917;50.818;6.972;2023-02-24T04:11:32;5.60;99.90
15636;DHT22;7917;50.818;6.972;2023-02-24T04:14:04;5.50;99.90
15636;DHT22;7917;50.818;6.972;2023-02-24T04:16:36;5.50;99.90
15636;DHT22;7917;50.818;6.972;2023-02-24T04:19:10;5.50;99.90
15636;DHT22;7917;50.818;6.972;2023-02-24T04:21:41;5.40;99.90
15636;DHT22;7917;50.818;6.972;2023-02-24T04:24:12;5.40;99.90
15636;DHT22;7917;50.818;6.972;2023-02-24T04:26:43;5.40;99.90
15636;DHT22;7917;50.818;6.972;2023-02-24T04:29:12;5.30;99.90
15636;DHT22;7917;50.818;6.972;2023-02-24T04:31:44;5.30;99.90
15636;DHT22;7917;50.818;6.972;2023-02-24T04:34:11;5.30;99.90
15636;DHT22;7917;50.818;6.972;2023-02-24T04:36:45;5.30;99.90
15636;DHT22;7917;50.818;6.972;2023-02-24T04:39:16;5.30;99.90
15636;DHT22;7917;50.818;6.972;2023-02-24T04:41:44;5.30;99.90
15636;DHT22;7917;50.818;6.972;2023-02-24T04:44:11;5.20;99.90
15636;DHT22;7917;50.818;6.972;2023-02-24T04:46:37;5.30;99.90
15636;DHT22;7917;50.818;6.972;2023-02-24T04:49:04;5.20;99.90
15636;DHT22;7917;50.818;6.972;2023-02-24T04:51:30;5.20;99.90
15636;DHT22;7917;50.818;6.972;2023-02-24T04:53:58;5.20;99.90
15636;DHT22;7917;50.818;6.972;2023-02-24T04:56:25;5.20;99.90
15636;DHT22;7917;50.818;6.972;2023-02-24T04:58:53;5.20;99.90
15636;DHT22;7917;50.818;6.972;2023-02-24T05:01:20;5.20;99.90
15636;DHT22;7917;50.818;6.972;2023-02-24T05:03:46;5.20;99.90
15636;DHT22;7917;50.818;6.972;2023-02-24T05:06:14;5.20;99.90
15636;DHT22;7917;50.818;6.972;2023-02-24T05:08:42;5.10;99.90
15636;DHT22;7917;50.818;6.972;2023-02-24T05:11:12;5.20;99.90
15636;DHT22;7917;50.818;6.972;2023-02-24T05:13:41;5.10;99.90
15636;DHT22;7917;50.818;6.972;2023-02-24T05:16:12;5.20;99.90
15636;DHT22;7917;50.818;6.972;2023-02-24T05:18:39;5.10;99.90
15636;DHT22;7917;50.818;6.972;2023-02-24T05:21:07;5.10;99.90
15636;DHT22;7917;50.818;6.972;2023-02-24T05:23:52;5.10;99.90
15636;DHT22;7917;50.818;6.972;2023-02-24T05:26:25;5.10;99.90
15636;DHT22;7917;50.818;6.972;2023-02-24T05:28:54;5.10;99.90
15636;DHT22;7917;50.818;6.972;2023-02-24T05:31:24;5.00;99.90
15636;DHT22;7917;50.818;6.972;2023-02-24T05:33:52;5.00;99.90
15636;DHT22;7917;50.818;6.972;2023-02-24T05:36:20;5.00;99.90
15636;DHT22;7917;50.818;6.972;2023-02-24T05:38:49;5.00;99.90
15636;DHT22;7917;50.818;6.972;2023-02-24T05:41:20;5.00;99.90
15636;DHT22;7917;50.818;6.972;2023-02-24T05:43:48;5.00;99.90
15636;DHT22;7917;50.818;6.972;2023-02-24T05:46:19;5.00;99.90
15636;DHT22;7917;50.818;6.972;2023-02-24T05:48:49;5.10;99.90
15636;DHT22;7917;50.818;6.972;2023-02-24T05:51:16;5.00;99.90
15636;DHT22;7917;50.818;6.972;2023-02-24T05:53:43;4.90;99.90
15636;DHT22;7917;50.818;6.972;2023-02-24T05:56:10;4.90;99.90
15636;DHT22;7917;50.818;6.972;2023-02-24T05:58:37;4.90;99.90
15636;DHT22;7917;50.818;6.972;2023-02-24T06:01:09;4.90;99.90
15636;DHT22;7917;50.818;6.972;2023-02-24T06:03:41;4.90;99.90
15636;DHT22;7917;50.818;6.972;2023-02-24T06:06:11;4.90;99.90
15636;DHT22;7917;50.818;6.972;2023-02-24T06:08:38;4.90;99.90
15636;DHT22;7917;50.818;6.972;2023-02-24T06:11:08;4.80;99.90
15636;DHT22;7917;50.818;6.972;2023-02-24T06:13:36;4.80;99.90
15636;DHT22;7917;50.818;6.972;2023-02-24T06:16:04;4.80;99.90
15636;DHT22;7917;50.818;6.972;2023-02-24T06:18:30;4.70;99.90
15636;DHT22;7917;50.818;6.972;2023-02-24T06:21:00;4.70;99.90
15636;DHT22;7917;50.818;6.972;2023-02-24T06:23:27;4.70;99.90
15636;DHT22;7917;50.818;6.972;2023-02-24T06:25:54;4.60;99.90
15636;DHT22;7917;50.818;6.972;2023-02-24T06:28:22;4.70;99.90
15636;DHT22;7917;50.818;6.972;2023-02-24T06:30:49;4.70;99.90
15636;DHT22;7917;50.818;6.972;2023-02-24T06:33:16;4.70;99.90
15636;DHT22;7917;50.818;6.972;2023-02-24T06:35:43;4.70;99.90
15636;DHT22;7917;50.818;6.972;2023-02-24T06:38:10;4.70;99.90
15636;DHT22;7917;50.818;6.972;2023-02-24T06:40:37;4.70;99.90
15636;DHT22;7917;50.818;6.972;2023-02-24T06:43:03;4.80;99.90
15636;DHT22;7917;50.818;6.972;2023-02-24T06:45:31;4.80;99.90
15636;DHT22;7917;50.818;6.972;2023-02-24T06:47:57;4.80;99.90
15636;DHT22;7917;50.818;6.972;2023-02-24T06:50:23;4.90;99.90
15636;DHT22;7917;50.818;6.972;2023-02-24T06:52:54;4.90;99.90
15636;DHT22;7917;50.818;6.972;2023-02-24T06:55:24;4.90;99.90
15636;DHT22;7917;50.818;6.972;2023-02-24T06:57:55;5.00;99.90
15636;DHT22;7917;50.818;6.972;2023-02-24T07:00:28;5.00;99.90
15636;DHT22;7917;50.818;6.972;2023-02-24T07:03:04;5.00;99.90
15636;DHT22;7917;50.818;6.972;2023-02-24T07:05:41;5.10;99.90
15636;DHT22;7917;50.818;6.972;2023-02-24T07:08:07;5.10;99.90
15636;DHT22;7917;50.818;6.972;2023-02-24T07:10:35;5.10;99.90
15636;DHT22;7917;50.818;6.972;2023-02-24T07:13:02;5.00;99.90
15636;DHT22;7917;50.818;6.972;2023-02-24T07:15:29;5.10;99.90
15636;DHT22;7917;50.818;6.972;2023-02-24T07:17:57;5.00;99.90
15636;DHT22;7917;50.818;6.972;2023-02-24T07:20:23;5.10;99.90
15636;DHT22;7917;50.818;6.972;2023-02-24T07:22:50;5.10;99.90
15636;DHT22;7917;50.818;6.972;2023-02-24T07:25:17;5.30;99.20
15636;DHT22;7917;50.818;6.972;2023-02-24T07:27:58;5.40;1.00
15636;DHT22;7917;50.818;6.972;2023-02-24T07:30:28;5.50;99.90
15636;DHT22;7917;50.818;6.972;2023-02-24T07:32:55;5.60;24.20
15636;DHT22;7917;50.818;6.972;2023-02-24T07:35:22;5.60;99.90
15636;DHT22;7917;50.818;6.972;2023-02-24T07:37:50;5.70;1.00
15636;DHT22;7917;50.818;6.972;2023-02-24T07:40:17;5.60;1.00
15636;DHT22;7917;50.818;6.972;2023-02-24T07:42:46;5.70;1.00
15636;DHT22;7917;50.818;6.972;2023-02-24T07:45:14;5.70;99.90
15636;DHT22;7917;50.818;6.972;2023-02-24T07:47:41;5.60;1.00
15636;DHT22;7917;50.818;6.972;2023-02-24T07:50:08;5.50;1.00
15636;DHT22;7917;50.818;6.972;2023-02-24T07:52:39;5.50;1.00
15636;DHT22;7917;50.818;6.972;2023-02-24T07:55:07;5.60;99.90
15636;DHT22;7917;50.818;6.972;2023-02-24T07:57:34;5.50;1.00
15636;DHT22;7917;50.818;6.972;2023-02-24T08:00:03;5.60;1.00
15636;DHT22;7917;50.818;6.972;2023-02-24T08:02:42;5.50;1.00
15636;DHT22;7917;50.818;6.972;2023-02-24T08:05:09;5.50;1.00
15636;DHT22;7917;50.818;6.972;2023-02-24T08:07:36;5.60;99.90
15636;DHT22;7917;50.818;6.972;2023-02-24T08:10:03;5.60;99.90
15636;DHT22;7917;50.818;6.972;2023-02-24T08:12:39;5.70;99.90
15636;DHT22;7917;50.818;6.972;2023-02-24T08:15:09;5.60;99.90
15636;DHT22;7917;50.818;6.972;2023-02-24T08:17:42;5.70;12.70
15636;DHT22;7917;50.818;6.972;2023-02-24T08:20:12;5.80;99.90
15636;DHT22;7917;50.818;6.972;2023-02-24T08:22:50;5.80;99.90
15636;DHT22;7917;50.818;6.972;2023-02-24T08:25:19;5.80;99.90
15636;DHT22;7917;50.818;6.972;2023-02-24T08:27:50;5.80;99.90
15636;DHT22;7917;50.818;6.972;2023-02-24T08:30:22;5.80;99.90
15636;DHT22;7917;50.818;6.972;2023-02-24T08:32:50;5.90;1.00
15636;DHT22;7917;50.818;6.972;2023-02-24T08:35:24;5.90;1.00
15636;DHT22;7917;50.818;6.972;2023-02-24T08:38:00;5.90;99.90
15636;DHT22;7917;50.818;6.972;2023-02-24T08:40:31;5.90;99.90
15636;DHT22;7917;50.818;6.972;2023-02-24T08:43:16;5.90;99.90
15636;DHT22;7917;50.818;6.972;2023-02-24T08:45:46;5.90;99.90
15636;DHT22;7917;50.818;6.972;2023-02-24T08:48:18;6.00;99.90
15636;DHT22;7917;50.818;6.972;2023-02-24T08:50:52;6.00;1.00
15636;DHT22;7917;50.818;6.972;2023-02-24T08:53:20;6.10;99.90
15636;DHT22;7917;50.818;6.972;2023-02-24T08:55:48;6.10;1.00
15636;DHT22;7917;50.818;6.972;2023-02-24T08:58:17;6.20;99.90
15636;DHT22;7917;50.818;6.972;2023-02-24T09:00:44;6.20;99.90
15636;DHT22;7917;50.818;6.972;2023-02-24T09:03:22;6.10;99.90
15636;DHT22;7917;50.818;6.972;2023-02-24T09:06:00;6.10;99.90
15636;DHT22;7917;50.818;6.972;2023-02-24T09:08:31;6.10;99.90
15636;DHT22;7917;50.818;6.972;2023-02-24T09:10:59;6.20;99.90
15636;DHT22;7917;50.818;6.972;2023-02-24T09:13:25;6.20;99.90
15636;DHT22;7917;50.818;6.972;2023-02-24T09:15:59;6.30;99.90
15636;DHT22;7917;50.818;6.972;2023-02-24T09:18:26;6.40;99.90
15636;DHT22;7917;50.818;6.972;2023-02-24T09:20:55;6.40;99.90
15636;DHT22;7917;50.818;6.972;2023-02-24T09:23:21;6.30;1.00
15636;DHT22;7917;50.818;6.972;2023-02-24T09:25:55;6.50;1.00
15636;DHT22;7917;50.818;6.972;2023-02-24T09:28:23;6.60;1.00
15636;DHT22;7917;50.818;6.972;2023-02-24T09:30:51;6.50;1.00
15636;DHT22;7917;50.818;6.972;2023-02-24T09:33:23;6.50;99.90
15636;DHT22;7917;50.818;6.972;2023-02-24T09:35:58;6.50;1.00
15636;DHT22;7917;50.818;6.972;2023-02-24T09:38:35;6.50;1.00
15636;DHT22;7917;50.818;6.972;2023-02-24T09:41:23;6.40;99.90
15636;DHT22;7917;50.818;6.972;2023-02-24T09:44:00;6.50;99.90
15636;DHT22;7917;50.818;6.972;2023-02-24T09:46:33;6.50;99.90
15636;DHT22;7917;50.818;6.972;2023-02-24T09:49:06;6.30;99.90
15636;DHT22;7917;50.818;6.972;2023-02-24T09:51:34;6.30;99.90
15636;DHT22;7917;50.818;6.972;2023-02-24T09:54:13;6.40;99.90
15636;DHT22;7917;50.818;6.972;2023-02-24T09:56:47;6.20;99.90
15636;DHT22;7917;50.818;6.972;2023-02-24T09:59:28;6.20;99.90
15636;DHT22;7917;50.818;6.972;2023-02-24T10:01:59;6.10;99.90
15636;DHT22;7917;50.818;6.972;2023-02-24T10:07:34;6.20;99.90
15636;DHT22;7917;50.818;6.972;2023-02-24T10:10:09;6.40;99.90
15636;DHT22;7917;50.818;6.972;2023-02-24T10:12:47;6.50;99.90
15636;DHT22;7917;50.818;6.972;2023-02-24T10:15:26;6.50;99.90
15636;DHT22;7917;50.818;6.972;2023-02-24T10:18:28;6.50;99.90
15636;DHT22;7917;50.818;6.972;2023-02-24T10:20:59;6.70;99.90
15636;DHT22;7917;50.818;6.972;2023-02-24T10:23:38;6.60;99.90
15636;DHT22;7917;50.818;6.972;2023-02-24T10:26:15;6.60;99.90
15636;DHT22;7917;50.818;6.972;2023-02-24T10:29:01;6.50;99.90
15636;DHT22;7917;50.818;6.972;2023-02-24T10:31:40;6.60;99.90
15636;DHT22;7917;50.818;6.972;2023-02-24T10:34:33;6.60;99.90
15636;DHT22;7917;50.818;6.972;2023-02-24T10:37:02;6.50;99.90
15636;DHT22;7917;50.818;6.972;2023-02-24T10:39:36;6.60;99.90
15636;DHT22;7917;50.818;6.972;2023-02-24T10:42:09;6.50;99.90
15636;DHT22;7917;50.818;6.972;2023-02-24T10:44:43;6.50;99.90
15636;DHT22;7917;50.818;6.972;2023-02-24T10:47:18;6.50;99.90
15636;DHT22;7917;50.818;6.972;2023-02-24T10:49:57;6.50;99.90
15636;DHT22;7917;50.818;6.972;2023-02-24T10:52:30;6.70;99.90
15636;DHT22;7917;50.818;6.972;2023-02-24T10:55:24;6.80;99.90
15636;DHT22;7917;50.818;6.972;2023-02-24T10:58:05;6.70;99.90
15636;DHT22;7917;50.818;6.972;2023-02-24T11:00:39;6.70;99.90
15636;DHT22;7917;50.818;6.972;2023-02-24T11:03:37;6.70;99.90
15636;DHT22;7917;50.818;6.972;2023-02-24T11:06:18;6.70;99.90
15636;DHT22;7917;50.818;6.972;2023-02-24T11:09:05;6.60;99.90
15636;DHT22;7917;50.818;6.972;2023-02-24T11:11:46;6.60;99.90
15636;DHT22;7917;50.818;6.972;2023-02-24T11:17:19;6.70;99.90
15636;DHT22;7917;50.818;6.972;2023-02-24T11:19:58;6.60;99.90
15636;DHT22;7917;50.818;6.972;2023-02-24T11:22:30;6.60;99.90
15636;DHT22;7917;50.818;6.972;2023-02-24T11:25:04;6.60;99.90
15636;DHT22;7917;50.818;6.972;2023-02-24T11:27:33;6.60;99.90
15636;DHT22;7917;50.818;6.972;2023-02-24T11:30:14;6.60;99.90
15636;DHT22;7917;50.818;6.972;2023-02-24T11:33:00;6.60;99.90
15636;DHT22;7917;50.818;6.972;2023-02-24T11:35:34;6.60;99.90
15636;DHT22;7917;50.818;6.972;2023-02-24T11:38:10;6.50;99.90
15636;DHT22;7917;50.818;6.972;2023-02-24T11:40:45;6.50;99.90
15636;DHT22;7917;50.818;6.972;2023-02-24T11:43:23;6.50;99.90
15636;DHT22;7917;50.818;6.972;2023-02-24T11:45:57;6.30;99.90
15636;DHT22;7917;50.818;6.972;2023-02-24T11:48:27;6.30;99.90
15636;DHT22;7917;50.818;6.972;2023-02-24T11:50:59;6.30;99.90
15636;DHT22;7917;50.818;6.972;2023-02-24T11:56:10;6.10;99.90
15636;DHT22;7917;50.818;6.972;2023-02-24T11:58:45;6.00;99.90
15636;DHT22;7917;50.818;6.972;2023-02-24T12:01:20;6.10;99.90
15636;DHT22;7917;50.818;6.972;2023-02-24T12:03:56;6.20;99.90
15636;DHT22;7917;50.818;6.972;2023-02-24T12:06:30;6.10;99.90
15636;DHT22;7917;50.818;6.972;2023-02-24T12:09:02;6.00;99.90
15636;DHT22;7917;50.818;6.972;2023-02-24T12:11:41;5.90;1.00
15636;DHT22;7917;50.818;6.972;2023-02-24T12:14:20;5.60;99.90
15636;DHT22;7917;50.818;6.972;2023-02-24T12:16:55;5.60;99.90
15636;DHT22;7917;50.818;6.972;2023-02-24T12:19:30;5.50;99.90
15636;DHT22;7917;50.818;6.972;2023-02-24T12:22:06;5.40;96.20
15636;DHT22;7917;50.818;6.972;2023-02-24T12:24:39;5.40;99.90
15636;DHT22;7917;50.818;6.972;2023-02-24T12:27:14;5.40;1.00
15636;DHT22;7917;50.818;6.972;2023-02-24T12:30:06;5.60;1.00
15636;DHT22;7917;50.818;6.972;2023-02-24T12:32:58;5.40;1.00
15636;DHT22;7917;50.818;6.972;2023-02-24T12:35:35;5.40;99.90
15636;DHT22;7917;50.818;6.972;2023-02-24T12:38:20;5.40;1.00
15636;DHT22;7917;50.818;6.972;2023-02-24T12:40:59;5.40;99.90
15636;DHT22;7917;50.818;6.972;2023-02-24T12:43:34;5.50;1.00
15636;DHT22;7917;50.818;6.972;2023-02-24T12:46:18;5.40;99.90
15636;DHT22;7917;50.818;6.972;2023-02-24T12:49:02;5.30;37.70
15636;DHT22;7917;50.818;6.972;2023-02-24T12:51:40;5.30;99.90
15636;DHT22;7917;50.818;6.972;2023-02-24T12:54:17;5.40;99.90
15636;DHT22;7917;50.818;6.972;2023-02-24T12:56:53;5.40;99.90
15636;DHT22;7917;50.818;6.972;2023-02-24T12:59:27;5.50;1.00
15636;DHT22;7917;50.818;6.972;2023-02-24T13:01:58;5.40;1.00
15636;DHT22;7917;50.818;6.972;2023-02-24T13:04:38;5.40;1.00
15636;DHT22;7917;50.818;6.972;2023-02-24T13:07:34;5.40;99.90
15636;DHT22;7917;50.818;6.972;2023-02-24T13:10:16;5.40;99.90
15636;DHT22;7917;50.818;6.972;2023-02-24T13:12:48;5.40;99.90
15636;DHT22;7917;50.818;6.972;2023-02-24T13:15:22;5.40;99.90
15636;DHT22;7917;50.818;6.972;2023-02-24T13:17:55;5.40;99.90
15636;DHT22;7917;50.818;6.972;2023-02-24T13:20:28;5.50;15.10
15636;DHT22;7917;50.818;6.972;2023-02-24T13:22:55;5.50;1.00
15636;DHT22;7917;50.818;6.972;2023-02-24T13:25:25;5.50;99.90
15636;DHT22;7917;50.818;6.972;2023-02-24T13:27:55;5.40;99.90
15636;DHT22;7917;50.818;6.972;2023-02-24T13:30:33;5.40;99.90
15636;DHT22;7917;50.818;6.972;2023-02-24T13:33:17;5.40;99.90
15636;DHT22;7917;50.818;6.972;2023-02-24T13:35:47;5.40;99.90
15636;DHT22;7917;50.818;6.972;2023-02-24T13:38:26;5.40;99.90
15636;DHT22;7917;50.818;6.972;2023-02-24T13:41:06;5.30;99.90
15636;DHT22;7917;50.818;6.972;2023-02-24T13:43:33;5.20;99.90
15636;DHT22;7917;50.818;6.972;2023-02-24T13:46:02;5.10;99.90
15636;DHT22;7917;50.818;6.972;2023-02-24T13:48:53;5.10;99.90
15636;DHT22;7917;50.818;6.972;2023-02-24T13:51:38;5.10;99.90
15636;DHT22;7917;50.818;6.972;2023-02-24T13:54:27;5.10;99.90
15636;DHT22;7917;50.818;6.972;2023-02-24T13:57:21;5.10;99.90
15636;DHT22;7917;50.818;6.972;2023-02-24T14:00:00;5.10;99.90
15636;DHT22;7917;50.818;6.972;2023-02-24T14:02:37;5.10;99.90
15636;DHT22;7917;50.818;6.972;2023-02-24T14:05:10;5.10;99.90
15636;DHT22;7917;50.818;6.972;2023-02-24T14:07:42;5.10;99.90
15636;DHT22;7917;50.818;6.972;2023-02-24T14:10:15;5.10;99.90
15636;DHT22;7917;50.818;6.972;2023-02-24T14:12:45;5.20;99.90
15636;DHT22;7917;50.818;6.972;2023-02-24T14:15:16;5.20;99.90
15636;DHT22;7917;50.818;6.972;2023-02-24T14:17:53;5.30;99.90
15636;DHT22;7917;50.818;6.972;2023-02-24T14:20:24;5.30;99.90
15636;DHT22;7917;50.818;6.972;2023-02-24T14:22:53;5.30;99.90
15636;DHT22;7917;50.818;6.972;2023-02-24T14:25:22;5.30;99.90
15636;DHT22;7917;50.818;6.972;2023-02-24T14:27:50;5.30;99.90
15636;DHT22;7917;50.818;6.972;2023-02-24T14:30:27;5.40;99.90
15636;DHT22;7917;50.818;6.972;2023-02-24T14:32:55;5.40;99.90
15636;DHT22;7917;50.818;6.972;2023-02-24T14:35:29;5.40;99.90
15636;DHT22;7917;50.818;6.972;2023-02-24T14:37:59;5.40;99.90
15636;DHT22;7917;50.818;6.972;2023-02-24T14:40:27;5.40;99.90
15636;DHT22;7917;50.818;6.972;2023-02-24T14:42:55;5.40;99.90
15636;DHT22;7917;50.818;6.972;2023-02-24T14:45:25;5.40;99.90
15636;DHT22;7917;50.818;6.972;2023-02-24T14:47:52;5.40;99.90
15636;DHT22;7917;50.818;6.972;2023-02-24T14:50:24;5.30;99.90
15636;DHT22;7917;50.818;6.972;2023-02-24T14:52:56;5.30;99.90
15636;DHT22;7917;50.818;6.972;2023-02-24T14:55:28;5.20;99.90
15636;DHT22;7917;50.818;6.972;2023-02-24T14:57:59;5.30;99.90
15636;DHT22;7917;50.818;6.972;2023-02-24T15:00:31;5.20;99.90
15636;DHT22;7917;50.818;6.972;2023-02-24T15:03:04;5.30;99.90
15636;DHT22;7917;50.818;6.972;2023-02-24T15:05:39;5.30;99.90
15636;DHT22;7917;50.818;6.972;2023-02-24T15:08:22;5.30;99.90
15636;DHT22;7917;50.818;6.972;2023-02-24T15:10:51;5.30;99.90
15636;DHT22;7917;50.818;6.972;2023-02-24T15:13:24;5.30;99.90
15636;DHT22;7917;50.818;6.972;2023-02-24T15:15:53;5.30;99.90
15636;DHT22;7917;50.818;6.972;2023-02-24T15:18:23;5.20;99.90
15636;DHT22;7917;50.818;6.972;2023-02-24T15:21:22;5.20;99.90
15636;DHT22;7917;50.818;6.972;2023-02-24T15:23:57;5.20;99.90
15636;DHT22;7917;50.818;6.972;2023-02-24T15:26:26;5.20;99.90
15636;DHT22;7917;50.818;6.972;2023-02-24T15:28:57;5.20;99.90
15636;DHT22;7917;50.818;6.972;2023-02-24T15:31:25;5.20;99.90
15636;DHT22;7917;50.818;6.972;2023-02-24T15:33:55;5.20;99.90
15636;DHT22;7917;50.818;6.972;2023-02-24T15:36:27;5.20;99.90
15636;DHT22;7917;50.818;6.972;2023-02-24T15:38:58;5.20;99.90
15636;DHT22;7917;50.818;6.972;2023-02-24T15:41:39;5.20;99.90
15636;DHT22;7917;50.818;6.972;2023-02-24T15:44:19;5.20;99.90
15636;DHT22;7917;50.818;6.972;2023-02-24T15:46:48;5.20;99.90
15636;DHT22;7917;50.818;6.972;2023-02-24T15:49:18;5.20;99.90
15636;DHT22;7917;50.818;6.972;2023-02-24T15:51:48;5.20;99.90
15636;DHT22;7917;50.818;6.972;2023-02-24T15:54:18;5.20;99.90
15636;DHT22;7917;50.818;6.972;2023-02-24T15:56:46;5.20;99.90
15636;DHT22;7917;50.818;6.972;2023-02-24T15:59:14;5.20;99.90
15636;DHT22;7917;50.818;6.972;2023-02-24T16:01:42;5.20;99.90
15636;DHT22;7917;50.818;6.972;2023-02-24T16:04:08;5.10;99.90
15636;DHT22;7917;50.818;6.972;2023-02-24T16:06:35;5.10;99.90
15636;DHT22;7917;50.818;6.972;2023-02-24T16:09:09;5.10;99.90
15636;DHT22;7917;50.818;6.972;2023-02-24T16:11:40;5.20;99.90
15636;DHT22;7917;50.818;6.972;2023-02-24T16:14:12;5.20;99.90
15636;DHT22;7917;50.818;6.972;2023-02-24T16:16:40;5.20;99.90
15636;DHT22;7917;50.818;6.972;2023-02-24T16:19:08;5.20;99.90
15636;DHT22;7917;50.818;6.972;2023-02-24T16:21:35;5.20;99.90
15636;DHT22;7917;50.818;6.972;2023-02-24T16:24:03;5.30;99.90
15636;DHT22;7917;50.818;6.972;2023-02-24T16:26:34;5.20;99.90
15636;DHT22;7917;50.818;6.972;2023-02-24T16:29:02;5.30;99.90
15636;DHT22;7917;50.818;6.972;2023-02-24T16:31:28;5.20;99.90
15636;DHT22;7917;50.818;6.972;2023-02-24T16:33:55;5.30;99.90
15636;DHT22;7917;50.818;6.972;2023-02-24T16:36:24;5.20;99.90
15636;DHT22;7917;50.818;6.972;2023-02-24T16:38:52;5.20;99.90
15636;DHT22;7917;50.818;6.972;2023-02-24T16:41:19;5.20;99.90
15636;DHT22;7917;50.818;6.972;2023-02-24T16:43:47;5.20;99.90
15636;DHT22;7917;50.818;6.972;2023-02-24T16:46:39;5.20;99.90
15636;DHT22;7917;50.818;6.972;2023-02-24T16:49:07;5.20;99.90
15636;DHT22;7917;50.818;6.972;2023-02-24T16:51:35;5.20;99.90
15636;DHT22;7917;50.818;6.972;2023-02-24T16:54:04;5.20;99.90
15636;DHT22;7917;50.818;6.972;2023-02-24T16:56:30;5.20;99.90
15636;DHT22;7917;50.818;6.972;2023-02-24T16:58:58;5.20;99.90